sensor_id;sensor_type;location;lat;lon;timestamp;temperature;humidity
12413;DHT22;13877;18.896;-99.222;2023-04-06T00:00:34;34.80;13.00
12413;DHT22;13877;18.896;-99.222;2023-04-06T00:03:03;34.70;12.90
12413;DHT22;13877;18.896;-99.222;2023-04-06T00:05:30;34.60;13.10
12413;DHT22;13877;18.896;-99.222;2023-04-06T00:08:00;34.20;14.00
12413;DHT22;13877;18.896;-99.222;2023-04-06T00:10:27;34.00;14.20
12413;DHT22;13877;18.896;-99.222;2023-04-06T00:12:55;34.10;14.20
12413;DHT22;13877;18.896;-99.222;2023-04-06T00:15:23;34.00;14.00
12413;DHT22;13877;18.896;-99.222;2023-04-06T00:17:52;33.70;13.90
12413;DHT22;13877;18.896;-99.222;2023-04-06T00:20:19;33.50;14.00
12413;DHT22;13877;18.896;-99.222;2023-04-06T00:22:46;33.20;14.40
12413;DHT22;13877;18.896;-99.222;2023-04-06T00:25:15;32.70;15.30
12413;DHT22;13877;18.896;-99.222;2023-04-06T00:27:42;32.60;15.70
12413;DHT22;13877;18.896;-99.222;2023-04-06T00:30:09;32.30;16.00
12413;DHT22;13877;18.896;-99.222;2023-04-06T00:32:37;32.00;16.40
12413;DHT22;13877;18.896;-99.222;2023-04-06T00:35:04;31.60;17.10
12413;DHT22;13877;18.896;-99.222;2023-04-06T00:37:32;31.30;17.70
12413;DHT22;13877;18.896;-99.222;2023-04-06T00:39:59;30.80;18.20
12413;DHT22;13877;18.896;-99.222;2023-04-06T00:42:26;30.50;18.40
12413;DHT22;13877;18.896;-99.222;2023-04-06T00:44:55;29.90;18.40
12413;DHT22;13877;18.896;-99.222;2023-04-06T00:47:22;29.60;19.20
12413;DHT22;13877;18.896;-99.222;2023-04-06T00:49:52;29.40;19.40
12413;DHT22;13877;18.896;-99.222;2023-04-06T00:52:19;29.20;19.80
12413;DHT22;13877;18.896;-99.222;2023-04-06T00:54:49;29.10;19.90
12413;DHT22;13877;18.896;-99.222;2023-04-06T00:57:19;28.90;20.30
12413;DHT22;13877;18.896;-99.222;2023-04-06T00:59:52;28.80;20.90
12413;DHT22;13877;18.896;-99.222;2023-04-06T01:02:20;28.60;21.30
12413;DHT22;13877;18.896;-99.222;2023-04-06T01:04:50;28.30;21.50
12413;DHT22;13877;18.896;-99.222;2023-04-06T01:07:25;28.10;22.10
12413;DHT22;13877;18.896;-99.222;2023-04-06T01:10:06;27.90;22.30
12413;DHT22;13877;18.896;-99.222;2023-04-06T01:12:35;27.80;22.30
12413;DHT22;13877;18.896;-99.222;2023-04-06T01:15:08;27.80;22.40
12413;DHT22;13877;18.896;-99.222;2023-04-06T01:17:39;28.00;22.30
12413;DHT22;13877;18.896;-99.222;2023-04-06T01:20:12;27.60;23.10
12413;DHT22;13877;18.896;-99.222;2023-04-06T01:22:39;27.40;23.40
12413;DHT22;13877;18.896;-99.222;2023-04-06T01:25:07;27.20;23.90
12413;DHT22;13877;18.896;-99.222;2023-04-06T01:28:13;27.10;24.30
12413;DHT22;13877;18.896;-99.222;2023-04-06T01:31:08;27.00;24.30
12413;DHT22;13877;18.896;-99.222;2023-04-06T01:33:49;26.90;24.60
12413;DHT22;13877;18.896;-99.222;2023-04-06T01:36:19;26.80;24.80
12413;DHT22;13877;18.896;-99.222;2023-04-06T01:38:53;26.80;25.00
12413;DHT22;13877;18.896;-99.222;2023-04-06T01:41:27;26.80;25.60
12413;DHT22;13877;18.896;-99.222;2023-04-06T01:43:55;26.90;24.80
12413;DHT22;13877;18.896;-99.222;2023-04-06T01:46:26;27.30;23.80
12413;DHT22;13877;18.896;-99.222;2023-04-06T01:48:54;27.50;23.10
12413;DHT22;13877;18.896;-99.222;2023-04-06T01:51:30;27.40;22.50
12413;DHT22;13877;18.896;-99.222;2023-04-06T01:54:00;27.50;22.40
12413;DHT22;13877;18.896;-99.222;2023-04-06T01:56:53;27.40;22.10
12413;DHT22;13877;18.896;-99.222;2023-04-06T01:59:33;27.40;21.90
12413;DHT22;13877;18.896;-99.222;2023-04-06T02:02:06;27.30;21.70
12413;DHT22;13877;18.896;-99.222;2023-04-06T02:04:34;27.10;21.80
12413;DHT22;13877;18.896;-99.222;2023-04-06T02:07:09;27.00;21.80
12413;DHT22;13877;18.896;-99.222;2023-04-06T02:09:37;26.90;21.80
12413;DHT22;13877;18.896;-99.222;2023-04-06T02:12:06;26.80;21.90
12413;DHT22;13877;18.896;-99.222;2023-04-06T02:14:34;26.80;21.70
12413;DHT22;13877;18.896;-99.222;2023-04-06T02:17:01;27.00;21.60
12413;DHT22;13877;18.896;-99.222;2023-04-06T02:19:28;26.90;21.60
12413;DHT22;13877;18.896;-99.222;2023-04-06T02:21:55;26.70;21.90
12413;DHT22;13877;18.896;-99.222;2023-04-06T02:24:23;26.60;22.10
12413;DHT22;13877;18.896;-99.222;2023-04-06T02:26:49;26.50;22.20
12413;DHT22;13877;18.896;-99.222;2023-04-06T02:29:17;26.40;22.30
12413;DHT22;13877;18.896;-99.222;2023-04-06T02:31:44;26.40;22.30
12413;DHT22;13877;18.896;-99.222;2023-04-06T02:34:11;26.40;22.20
12413;DHT22;13877;18.896;-99.222;2023-04-06T02:36:48;26.30;22.40
12413;DHT22;13877;18.896;-99.222;2023-04-06T02:39:15;26.30;22.30
12413;DHT22;13877;18.896;-99.222;2023-04-06T02:41:42;26.40;22.30
12413;DHT22;13877;18.896;-99.222;2023-04-06T02:44:10;26.30;22.30
12413;DHT22;13877;18.896;-99.222;2023-04-06T02:46:41;26.20;22.20
12413;DHT22;13877;18.896;-99.222;2023-04-06T02:49:08;26.20;22.20
12413;DHT22;13877;18.896;-99.222;2023-04-06T02:51:35;26.30;22.20
12413;DHT22;13877;18.896;-99.222;2023-04-06T02:54:29;26.20;22.30
12413;DHT22;13877;18.896;-99.222;2023-04-06T02:56:56;26.10;22.20
12413;DHT22;13877;18.896;-99.222;2023-04-06T02:59:30;26.10;22.20
12413;DHT22;13877;18.896;-99.222;2023-04-06T03:02:08;26.10;22.20
12413;DHT22;13877;18.896;-99.222;2023-04-06T03:04:36;26.00;22.40
12413;DHT22;13877;18.896;-99.222;2023-04-06T03:07:06;26.00;22.50
12413;DHT22;13877;18.896;-99.222;2023-04-06T03:09:39;25.80;22.70
12413;DHT22;13877;18.896;-99.222;2023-04-06T03:12:07;25.70;22.80
12413;DHT22;13877;18.896;-99.222;2023-04-06T03:14:44;25.30;23.30
12413;DHT22;13877;18.896;-99.222;2023-04-06T03:17:11;25.10;23.10
12413;DHT22;13877;18.896;-99.222;2023-04-06T03:19:38;24.90;23.20
12413;DHT22;13877;18.896;-99.222;2023-04-06T03:22:06;25.20;23.40
12413;DHT22;13877;18.896;-99.222;2023-04-06T03:24:35;25.20;22.80
12413;DHT22;13877;18.896;-99.222;2023-04-06T03:27:02;25.20;22.50
12413;DHT22;13877;18.896;-99.222;2023-04-06T03:29:29;25.10;22.60
12413;DHT22;13877;18.896;-99.222;2023-04-06T03:31:56;25.20;22.00
12413;DHT22;13877;18.896;-99.222;2023-04-06T03:34:33;25.20;21.80
12413;DHT22;13877;18.896;-99.222;2023-04-06T03:37:00;25.40;21.70
12413;DHT22;13877;18.896;-99.222;2023-04-06T03:39:28;25.40;21.80
12413;DHT22;13877;18.896;-99.222;2023-04-06T03:41:55;25.30;21.70
12413;DHT22;13877;18.896;-99.222;2023-04-06T03:44:32;25.20;22.00
12413;DHT22;13877;18.896;-99.222;2023-04-06T03:47:00;25.00;22.20
12413;DHT22;13877;18.896;-99.222;2023-04-06T03:49:28;24.80;22.10
12413;DHT22;13877;18.896;-99.222;2023-04-06T03:51:57;24.70;23.20
12413;DHT22;13877;18.896;-99.222;2023-04-06T03:54:23;24.60;23.10
12413;DHT22;13877;18.896;-99.222;2023-04-06T03:56:51;24.40;23.10
12413;DHT22;13877;18.896;-99.222;2023-04-06T03:59:17;24.30;23.50
12413;DHT22;13877;18.896;-99.222;2023-04-06T04:01:45;24.40;23.20
12413;DHT22;13877;18.896;-99.222;2023-04-06T04:04:13;24.40;23.70
12413;DHT22;13877;18.896;-99.222;2023-04-06T04:06:40;24.40;23.50
12413;DHT22;13877;18.896;-99.222;2023-04-06T04:09:08;24.50;22.90
12413;DHT22;13877;18.896;-99.222;2023-04-06T04:11:35;24.40;23.80
12413;DHT22;13877;18.896;-99.222;2023-04-06T04:14:02;24.20;24.00
12413;DHT22;13877;18.896;-99.222;2023-04-06T04:16:30;24.10;24.70
12413;DHT22;13877;18.896;-99.222;2023-04-06T04:18:57;23.90;24.90
12413;DHT22;13877;18.896;-99.222;2023-04-06T04:21:29;23.90;25.80
12413;DHT22;13877;18.896;-99.222;2023-04-06T04:23:57;23.80;27.10
12413;DHT22;13877;18.896;-99.222;2023-04-06T04:26:24;23.70;26.00
12413;DHT22;13877;18.896;-99.222;2023-04-06T04:28:51;23.50;27.20
12413;DHT22;13877;18.896;-99.222;2023-04-06T04:31:18;23.50;26.50
12413;DHT22;13877;18.896;-99.222;2023-04-06T04:33:51;23.70;26.00
12413;DHT22;13877;18.896;-99.222;2023-04-06T04:36:25;23.80;26.50
12413;DHT22;13877;18.896;-99.222;2023-04-06T04:38:54;23.90;26.20
12413;DHT22;13877;18.896;-99.222;2023-04-06T04:41:22;23.80;25.80
12413;DHT22;13877;18.896;-99.222;2023-04-06T04:43:51;23.80;27.40
12413;DHT22;13877;18.896;-99.222;2023-04-06T04:46:22;23.90;29.00
12413;DHT22;13877;18.896;-99.222;2023-04-06T04:48:49;24.10;32.30
12413;DHT22;13877;18.896;-99.222;2023-04-06T04:51:16;24.20;33.20
12413;DHT22;13877;18.896;-99.222;2023-04-06T04:54:03;24.20;33.70
12413;DHT22;13877;18.896;-99.222;2023-04-06T04:56:32;24.10;34.50
12413;DHT22;13877;18.896;-99.222;2023-04-06T04:59:25;24.20;35.30
12413;DHT22;13877;18.896;-99.222;2023-04-06T05:02:00;24.10;36.80
12413;DHT22;13877;18.896;-99.222;2023-04-06T05:04:37;24.00;37.60
12413;DHT22;13877;18.896;-99.222;2023-04-06T05:07:08;23.90;38.70
12413;DHT22;13877;18.896;-99.222;2023-04-06T05:09:40;23.70;39.10
12413;DHT22;13877;18.896;-99.222;2023-04-06T05:12:08;23.70;40.20
12413;DHT22;13877;18.896;-99.222;2023-04-06T05:14:44;23.80;40.60
12413;DHT22;13877;18.896;-99.222;2023-04-06T05:17:15;23.60;41.20
12413;DHT22;13877;18.896;-99.222;2023-04-06T05:19:42;23.60;40.90
12413;DHT22;13877;18.896;-99.222;2023-04-06T05:22:10;23.30;41.70
12413;DHT22;13877;18.896;-99.222;2023-04-06T05:24:40;23.10;42.60
12413;DHT22;13877;18.896;-99.222;2023-04-06T05:27:08;23.00;43.00
12413;DHT22;13877;18.896;-99.222;2023-04-06T05:29:35;23.00;43.20
12413;DHT22;13877;18.896;-99.222;2023-04-06T05:32:02;23.00;43.40
12413;DHT22;13877;18.896;-99.222;2023-04-06T05:34:29;22.90;43.70
12413;DHT22;13877;18.896;-99.222;2023-04-06T05:37:01;22.80;44.10
12413;DHT22;13877;18.896;-99.222;2023-04-06T05:39:28;22.80;44.40
12413;DHT22;13877;18.896;-99.222;2023-04-06T05:41:56;22.80;44.50
12413;DHT22;13877;18.896;-99.222;2023-04-06T05:44:43;22.80;44.70
12413;DHT22;13877;18.896;-99.222;2023-04-06T05:47:13;22.80;44.80
12413;DHT22;13877;18.896;-99.222;2023-04-06T05:49:42;22.80;45.00
12413;DHT22;13877;18.896;-99.222;2023-04-06T05:52:15;22.70;45.10
12413;DHT22;13877;18.896;-99.222;2023-04-06T05:54:47;22.60;45.40
12413;DHT22;13877;18.896;-99.222;2023-04-06T05:57:14;22.50;46.00
12413;DHT22;13877;18.896;-99.222;2023-04-06T05:59:43;22.40;46.10
12413;DHT22;13877;18.896;-99.222;2023-04-06T06:02:12;22.40;46.60
12413;DHT22;13877;18.896;-99.222;2023-04-06T06:04:44;22.30;46.70
12413;DHT22;13877;18.896;-99.222;2023-04-06T06:07:14;22.10;47.20
12413;DHT22;13877;18.896;-99.222;2023-04-06T06:09:47;22.00;47.90
12413;DHT22;13877;18.896;-99.222;2023-04-06T06:12:20;22.00;48.20
12413;DHT22;13877;18.896;-99.222;2023-04-06T06:14:49;22.10;47.80
12413;DHT22;13877;18.896;-99.222;2023-04-06T06:17:18;22.10;47.80
12413;DHT22;13877;18.896;-99.222;2023-04-06T06:19:48;22.10;47.90
12413;DHT22;13877;18.896;-99.222;2023-04-06T06:22:16;22.10;47.90
12413;DHT22;13877;18.896;-99.222;2023-04-06T06:24:46;22.10;48.00
12413;DHT22;13877;18.896;-99.222;2023-04-06T06:27:13;22.20;47.80
12413;DHT22;13877;18.896;-99.222;2023-04-06T06:29:41;22.20;47.90
12413;DHT22;13877;18.896;-99.222;2023-04-06T06:32:08;22.20;47.90
12413;DHT22;13877;18.896;-99.222;2023-04-06T06:34:39;22.10;48.00
12413;DHT22;13877;18.896;-99.222;2023-04-06T06:37:08;22.10;47.90
12413;DHT22;13877;18.896;-99.222;2023-04-06T06:39:37;22.20;48.10
12413;DHT22;13877;18.896;-99.222;2023-04-06T06:42:05;22.40;48.00
12413;DHT22;13877;18.896;-99.222;2023-04-06T06:44:46;22.30;48.40
12413;DHT22;13877;18.896;-99.222;2023-04-06T06:47:13;22.30;48.70
12413;DHT22;13877;18.896;-99.222;2023-04-06T06:49:40;22.20;49.00
12413;DHT22;13877;18.896;-99.222;2023-04-06T06:52:08;22.30;49.20
12413;DHT22;13877;18.896;-99.222;2023-04-06T06:54:35;22.20;48.90
12413;DHT22;13877;18.896;-99.222;2023-04-06T06:57:02;22.20;48.90
12413;DHT22;13877;18.896;-99.222;2023-04-06T06:59:29;21.90;48.90
12413;DHT22;13877;18.896;-99.222;2023-04-06T07:01:56;21.80;49.30
12413;DHT22;13877;18.896;-99.222;2023-04-06T07:04:23;21.90;49.80
12413;DHT22;13877;18.896;-99.222;2023-04-06T07:06:50;21.90;49.60
12413;DHT22;13877;18.896;-99.222;2023-04-06T07:09:19;21.90;49.20
12413;DHT22;13877;18.896;-99.222;2023-04-06T07:11:46;21.90;49.30
12413;DHT22;13877;18.896;-99.222;2023-04-06T07:14:14;21.90;49.80
12413;DHT22;13877;18.896;-99.222;2023-04-06T07:16:42;21.90;50.30
12413;DHT22;13877;18.896;-99.222;2023-04-06T07:19:11;21.80;49.90
12413;DHT22;13877;18.896;-99.222;2023-04-06T07:21:39;21.70;50.40
12413;DHT22;13877;18.896;-99.222;2023-04-06T07:24:05;21.80;49.30
12413;DHT22;13877;18.896;-99.222;2023-04-06T07:26:33;21.90;48.30
12413;DHT22;13877;18.896;-99.222;2023-04-06T07:28:59;22.30;46.70
12413;DHT22;13877;18.896;-99.222;2023-04-06T07:31:27;22.30;46.40
12413;DHT22;13877;18.896;-99.222;2023-04-06T07:33:54;22.30;46.50
12413;DHT22;13877;18.896;-99.222;2023-04-06T07:36:22;22.20;46.70
12413;DHT22;13877;18.896;-99.222;2023-04-06T07:38:49;22.20;46.90
12413;DHT22;13877;18.896;-99.222;2023-04-06T07:41:17;22.20;47.30
12413;DHT22;13877;18.896;-99.222;2023-04-06T07:43:44;22.00;47.60
12413;DHT22;13877;18.896;-99.222;2023-04-06T07:46:12;22.00;47.80
12413;DHT22;13877;18.896;-99.222;2023-04-06T07:48:39;21.90;48.20
12413;DHT22;13877;18.896;-99.222;2023-04-06T07:51:06;21.90;48.00
12413;DHT22;13877;18.896;-99.222;2023-04-06T07:53:39;22.00;48.00
12413;DHT22;13877;18.896;-99.222;2023-04-06T07:56:06;22.10;47.80
12413;DHT22;13877;18.896;-99.222;2023-04-06T07:58:33;22.10;47.80
12413;DHT22;13877;18.896;-99.222;2023-04-06T08:01:01;22.10;47.90
12413;DHT22;13877;18.896;-99.222;2023-04-06T08:03:28;22.10;48.00
12413;DHT22;13877;18.896;-99.222;2023-04-06T08:05:55;22.00;48.10
12413;DHT22;13877;18.896;-99.222;2023-04-06T08:08:22;22.00;48.50
12413;DHT22;13877;18.896;-99.222;2023-04-06T08:10:49;21.90;48.50
12413;DHT22;13877;18.896;-99.222;2023-04-06T08:13:16;21.90;48.80
12413;DHT22;13877;18.896;-99.222;2023-04-06T08:15:43;21.90;48.50
12413;DHT22;13877;18.896;-99.222;2023-04-06T08:18:10;21.90;48.90
12413;DHT22;13877;18.896;-99.222;2023-04-06T08:20:38;21.80;48.70
12413;DHT22;13877;18.896;-99.222;2023-04-06T08:23:05;21.80;48.70
12413;DHT22;13877;18.896;-99.222;2023-04-06T08:25:36;21.70;48.70
12413;DHT22;13877;18.896;-99.222;2023-04-06T08:28:04;21.70;48.70
12413;DHT22;13877;18.896;-99.222;2023-04-06T08:30:31;21.60;48.70
12413;DHT22;13877;18.896;-99.222;2023-04-06T08:32:58;21.60;48.70
12413;DHT22;13877;18.896;-99.222;2023-04-06T08:35:27;21.60;49.00
12413;DHT22;13877;18.896;-99.222;2023-04-06T08:37:54;21.60;49.10
12413;DHT22;13877;18.896;-99.222;2023-04-06T08:40:21;21.50;49.30
12413;DHT22;13877;18.896;-99.222;2023-04-06T08:42:59;21.50;49.50
12413;DHT22;13877;18.896;-99.222;2023-04-06T08:45:29;21.40;49.30
12413;DHT22;13877;18.896;-99.222;2023-04-06T08:47:58;21.30;49.90
12413;DHT22;13877;18.896;-99.222;2023-04-06T08:50:29;21.40;49.70
12413;DHT22;13877;18.896;-99.222;2023-04-06T08:52:57;21.50;49.50
12413;DHT22;13877;18.896;-99.222;2023-04-06T08:55:25;21.40;49.20
12413;DHT22;13877;18.896;-99.222;2023-04-06T08:57:52;21.40;49.50
12413;DHT22;13877;18.896;-99.222;2023-04-06T09:00:21;21.40;49.50
12413;DHT22;13877;18.896;-99.222;2023-04-06T09:02:50;21.40;49.20
12413;DHT22;13877;18.896;-99.222;2023-04-06T09:05:20;21.40;49.40
12413;DHT22;13877;18.896;-99.222;2023-04-06T09:07:47;21.40;49.30
12413;DHT22;13877;18.896;-99.222;2023-04-06T09:10:15;21.40;49.50
12413;DHT22;13877;18.896;-99.222;2023-04-06T09:12:43;21.40;49.50
12413;DHT22;13877;18.896;-99.222;2023-04-06T09:15:21;21.40;49.30
12413;DHT22;13877;18.896;-99.222;2023-04-06T09:17:48;21.30;49.50
12413;DHT22;13877;18.896;-99.222;2023-04-06T09:20:23;21.30;49.70
12413;DHT22;13877;18.896;-99.222;2023-04-06T09:22:52;21.20;49.70
12413;DHT22;13877;18.896;-99.222;2023-04-06T09:25:21;21.30;49.30
12413;DHT22;13877;18.896;-99.222;2023-04-06T09:27:58;21.30;49.00
12413;DHT22;13877;18.896;-99.222;2023-04-06T09:30:27;21.30;49.00
12413;DHT22;13877;18.896;-99.222;2023-04-06T09:32:55;21.30;49.20
12413;DHT22;13877;18.896;-99.222;2023-04-06T09:35:23;21.20;49.40
12413;DHT22;13877;18.896;-99.222;2023-04-06T09:37:53;21.10;49.60
12413;DHT22;13877;18.896;-99.222;2023-04-06T09:40:21;21.00;49.80
12413;DHT22;13877;18.896;-99.222;2023-04-06T09:42:49;20.90;49.90
12413;DHT22;13877;18.896;-99.222;2023-04-06T09:45:20;20.90;49.80
12413;DHT22;13877;18.896;-99.222;2023-04-06T09:47:47;20.90;50.30
12413;DHT22;13877;18.896;-99.222;2023-04-06T09:50:16;20.70;50.60
12413;DHT22;13877;18.896;-99.222;2023-04-06T09:52:50;20.70;50.80
12413;DHT22;13877;18.896;-99.222;2023-04-06T09:55:30;20.60;51.10
12413;DHT22;13877;18.896;-99.222;2023-04-06T09:58:04;20.70;51.00
12413;DHT22;13877;18.896;-99.222;2023-04-06T10:00:56;20.80;50.60
12413;DHT22;13877;18.896;-99.222;2023-04-06T10:06:13;20.80;50.60
12413;DHT22;13877;18.896;-99.222;2023-04-06T10:08:42;20.80;50.50
12413;DHT22;13877;18.896;-99.222;2023-04-06T10:11:11;20.80;50.70
12413;DHT22;13877;18.896;-99.222;2023-04-06T10:13:38;20.80;50.30
12413;DHT22;13877;18.896;-99.222;2023-04-06T10:16:06;20.90;50.00
12413;DHT22;13877;18.896;-99.222;2023-04-06T10:18:34;20.80;50.00
12413;DHT22;13877;18.896;-99.222;2023-04-06T10:21:11;20.80;50.20
12413;DHT22;13877;18.896;-99.222;2023-04-06T10:23:52;20.80;50.20
12413;DHT22;13877;18.896;-99.222;2023-04-06T10:26:22;20.80;50.30
12413;DHT22;13877;18.896;-99.222;2023-04-06T10:28:50;20.70;50.60
12413;DHT22;13877;18.896;-99.222;2023-04-06T10:31:27;20.70;50.70
12413;DHT22;13877;18.896;-99.222;2023-04-06T10:33:59;20.70;50.70
12413;DHT22;13877;18.896;-99.222;2023-04-06T10:36:28;20.70;51.20
12413;DHT22;13877;18.896;-99.222;2023-04-06T10:39:00;20.60;51.40
12413;DHT22;13877;18.896;-99.222;2023-04-06T10:41:37;20.60;51.60
12413;DHT22;13877;18.896;-99.222;2023-04-06T10:44:07;20.60;52.00
12413;DHT22;13877;18.896;-99.222;2023-04-06T10:46:34;20.50;52.00
12413;DHT22;13877;18.896;-99.222;2023-04-06T10:49:11;20.40;52.30
12413;DHT22;13877;18.896;-99.222;2023-04-06T10:51:39;20.40;52.20
12413;DHT22;13877;18.896;-99.222;2023-04-06T10:54:06;20.40;52.30
12413;DHT22;13877;18.896;-99.222;2023-04-06T10:56:37;20.40;52.40
12413;DHT22;13877;18.896;-99.222;2023-04-06T10:59:06;20.40;52.40
12413;DHT22;13877;18.896;-99.222;2023-04-06T11:01:34;20.40;52.40
12413;DHT22;13877;18.896;-99.222;2023-04-06T11:04:01;20.30;52.90
12413;DHT22;13877;18.896;-99.222;2023-04-06T11:06:30;20.20;53.20
12413;DHT22;13877;18.896;-99.222;2023-04-06T11:09:00;20.40;53.00
12413;DHT22;13877;18.896;-99.222;2023-04-06T11:11:27;20.40;52.80
12413;DHT22;13877;18.896;-99.222;2023-04-06T11:13:55;20.30;52.90
12413;DHT22;13877;18.896;-99.222;2023-04-06T11:18:55;20.30;53.10
12413;DHT22;13877;18.896;-99.222;2023-04-06T11:21:40;20.40;53.10
12413;DHT22;13877;18.896;-99.222;2023-04-06T11:24:22;20.30;53.30
12413;DHT22;13877;18.896;-99.222;2023-04-06T11:26:50;20.30;53.60
12413;DHT22;13877;18.896;-99.222;2023-04-06T11:29:22;20.20;53.70
12413;DHT22;13877;18.896;-99.222;2023-04-06T11:31:51;20.20;53.90
12413;DHT22;13877;18.896;-99.222;2023-04-06T11:34:23;20.20;53.80
12413;DHT22;13877;18.896;-99.222;2023-04-06T11:36:57;20.20;53.80
12413;DHT22;13877;18.896;-99.222;2023-04-06T11:39:25;20.20;53.90
12413;DHT22;13877;18.896;-99.222;2023-04-06T11:41:54;20.20;53.70
12413;DHT22;13877;18.896;-99.222;2023-04-06T11:44:36;20.20;54.10
12413;DHT22;13877;18.896;-99.222;2023-04-06T11:47:08;20.10;54.20
12413;DHT22;13877;18.896;-99.222;2023-04-06T11:49:40;20.00;54.50
12413;DHT22;13877;18.896;-99.222;2023-04-06T11:52:19;20.00;55.10
12413;DHT22;13877;18.896;-99.222;2023-04-06T11:54:48;19.90;55.50
12413;DHT22;13877;18.896;-99.222;2023-04-06T11:57:16;19.80;55.90
12413;DHT22;13877;18.896;-99.222;2023-04-06T11:59:45;19.80;56.70
12413;DHT22;13877;18.896;-99.222;2023-04-06T12:02:12;19.70;57.10
12413;DHT22;13877;18.896;-99.222;2023-04-06T12:04:39;19.80;56.70
12413;DHT22;13877;18.896;-99.222;2023-04-06T12:07:06;19.90;56.50
12413;DHT22;13877;18.896;-99.222;2023-04-06T12:09:34;19.90;56.40
12413;DHT22;13877;18.896;-99.222;2023-04-06T12:12:02;19.90;56.40
12413;DHT22;13877;18.896;-99.222;2023-04-06T12:14:30;19.90;56.70
12413;DHT22;13877;18.896;-99.222;2023-04-06T12:16:57;19.90;56.70
12413;DHT22;13877;18.896;-99.222;2023-04-06T12:19:24;19.80;56.90
12413;DHT22;13877;18.896;-99.222;2023-04-06T12:21:53;19.80;57.00
12413;DHT22;13877;18.896;-99.222;2023-04-06T12:24:20;19.90;56.50
12413;DHT22;13877;18.896;-99.222;2023-04-06T12:26:47;19.90;56.00
12413;DHT22;13877;18.896;-99.222;2023-04-06T12:29:14;19.90;56.20
12413;DHT22;13877;18.896;-99.222;2023-04-06T12:31:41;19.80;56.20
12413;DHT22;13877;18.896;-99.222;2023-04-06T12:34:11;19.80;56.10
12413;DHT22;13877;18.896;-99.222;2023-04-06T12:36:38;19.80;56.30
12413;DHT22;13877;18.896;-99.222;2023-04-06T12:39:05;19.80;56.70
12413;DHT22;13877;18.896;-99.222;2023-04-06T12:41:32;19.80;57.10
12413;DHT22;13877;18.896;-99.222;2023-04-06T12:43:59;19.80;57.00
12413;DHT22;13877;18.896;-99.222;2023-04-06T12:46:30;19.90;56.80
12413;DHT22;13877;18.896;-99.222;2023-04-06T12:48:57;19.90;56.80
12413;DHT22;13877;18.896;-99.222;2023-04-06T12:51:28;20.00;56.60
12413;DHT22;13877;18.896;-99.222;2023-04-06T12:53:55;20.10;56.40
12413;DHT22;13877;18.896;-99.222;2023-04-06T12:56:22;20.10;56.00
12413;DHT22;13877;18.896;-99.222;2023-04-06T12:58:51;20.10;56.20
12413;DHT22;13877;18.896;-99.222;2023-04-06T13:01:18;20.20;55.80
12413;DHT22;13877;18.896;-99.222;2023-04-06T13:03:46;20.30;55.40
12413;DHT22;13877;18.896;-99.222;2023-04-06T13:06:13;20.40;55.40
12413;DHT22;13877;18.896;-99.222;2023-04-06T13:08:41;20.40;55.20
12413;DHT22;13877;18.896;-99.222;2023-04-06T13:11:08;20.60;54.90
12413;DHT22;13877;18.896;-99.222;2023-04-06T13:13:37;20.60;54.80
12413;DHT22;13877;18.896;-99.222;2023-04-06T13:16:08;20.70;54.60
12413;DHT22;13877;18.896;-99.222;2023-04-06T13:18:36;20.80;54.70
12413;DHT22;13877;18.896;-99.222;2023-04-06T13:21:07;20.90;54.00
12413;DHT22;13877;18.896;-99.222;2023-04-06T13:23:35;21.00;54.30
12413;DHT22;13877;18.896;-99.222;2023-04-06T13:26:04;21.10;54.10
12413;DHT22;13877;18.896;-99.222;2023-04-06T13:28:32;21.20;53.80
12413;DHT22;13877;18.896;-99.222;2023-04-06T13:31:01;21.30;53.30
12413;DHT22;13877;18.896;-99.222;2023-04-06T13:33:29;21.50;52.90
12413;DHT22;13877;18.896;-99.222;2023-04-06T13:35:57;21.70;52.50
12413;DHT22;13877;18.896;-99.222;2023-04-06T13:38:24;21.90;51.30
12413;DHT22;13877;18.896;-99.222;2023-04-06T13:40:51;21.90;50.50
12413;DHT22;13877;18.896;-99.222;2023-04-06T13:43:20;22.30;50.20
12413;DHT22;13877;18.896;-99.222;2023-04-06T13:45:51;22.40;49.70
12413;DHT22;13877;18.896;-99.222;2023-04-06T13:48:18;22.50;49.50
12413;DHT22;13877;18.896;-99.222;2023-04-06T13:50:46;22.60;48.70
12413;DHT22;13877;18.896;-99.222;2023-04-06T13:53:13;22.50;48.90
12413;DHT22;13877;18.896;-99.222;2023-04-06T13:55:40;22.40;48.50
12413;DHT22;13877;18.896;-99.222;2023-04-06T13:58:08;22.30;48.40
12413;DHT22;13877;18.896;-99.222;2023-04-06T14:00:35;22.40;48.30
12413;DHT22;13877;18.896;-99.222;2023-04-06T14:03:02;22.60;48.50
12413;DHT22;13877;18.896;-99.222;2023-04-06T14:05:33;22.70;48.20
12413;DHT22;13877;18.896;-99.222;2023-04-06T14:08:00;23.00;47.70
12413;DHT22;13877;18.896;-99.222;2023-04-06T14:10:27;23.20;47.50
12413;DHT22;13877;18.896;-99.222;2023-04-06T14:12:54;23.30;46.30
12413;DHT22;13877;18.896;-99.222;2023-04-06T14:15:21;23.00;46.80
12413;DHT22;13877;18.896;-99.222;2023-04-06T14:17:49;23.10;46.70
12413;DHT22;13877;18.896;-99.222;2023-04-06T14:20:16;23.00;46.30
12413;DHT22;13877;18.896;-99.222;2023-04-06T14:22:44;23.30;46.40
12413;DHT22;13877;18.896;-99.222;2023-04-06T14:25:11;23.50;45.90
12413;DHT22;13877;18.896;-99.222;2023-04-06T14:27:39;23.80;45.60
12413;DHT22;13877;18.896;-99.222;2023-04-06T14:30:06;23.70;44.90
12413;DHT22;13877;18.896;-99.222;2023-04-06T14:32:34;23.90;44.70
12413;DHT22;13877;18.896;-99.222;2023-04-06T14:35:02;24.00;44.80
12413;DHT22;13877;18.896;-99.222;2023-04-06T14:37:29;23.90;44.80
12413;DHT22;13877;18.896;-99.222;2023-04-06T14:39:56;24.30;44.00
12413;DHT22;13877;18.896;-99.222;2023-04-06T14:42:23;24.40;43.90
12413;DHT22;13877;18.896;-99.222;2023-04-06T14:44:50;24.20;43.30
12413;DHT22;13877;18.896;-99.222;2023-04-06T14:47:17;24.50;43.10
12413;DHT22;13877;18.896;-99.222;2023-04-06T14:49:51;24.60;43.00
12413;DHT22;13877;18.896;-99.222;2023-04-06T14:52:18;24.20;43.00
12413;DHT22;13877;18.896;-99.222;2023-04-06T14:54:45;24.60;43.70
12413;DHT22;13877;18.896;-99.222;2023-04-06T14:57:12;24.90;43.10
12413;DHT22;13877;18.896;-99.222;2023-04-06T14:59:39;25.00;42.90
12413;DHT22;13877;18.896;-99.222;2023-04-06T15:02:06;25.00;42.50
12413;DHT22;13877;18.896;-99.222;2023-04-06T15:04:36;25.30;41.40
12413;DHT22;13877;18.896;-99.222;2023-04-06T15:07:03;25.30;40.80
12413;DHT22;13877;18.896;-99.222;2023-04-06T15:09:30;25.70;40.50
12413;DHT22;13877;18.896;-99.222;2023-04-06T15:11:57;25.40;41.20
12413;DHT22;13877;18.896;-99.222;2023-04-06T15:14:24;25.30;41.20
12413;DHT22;13877;18.896;-99.222;2023-04-06T15:16:51;25.90;40.30
12413;DHT22;13877;18.896;-99.222;2023-04-06T15:19:20;25.70;39.80
12413;DHT22;13877;18.896;-99.222;2023-04-06T15:21:47;26.10;40.50